sensor_id;sensor_type;location;lat;lon;timestamp;pressure;altitude;pressure_sealevel;temperature;humidity
40384;BME280;26097;42.366;23.818;2022-08-20T00:01:56;93899.09;;;17.15;96.45
40384;BME280;26097;42.366;23.818;2022-08-20T00:04:57;93882.97;;;17.10;96.72
40384;BME280;26097;42.366;23.818;2022-08-20T00:07:58;93877.53;;;17.11;97.31
40384;BME280;26097;42.366;23.818;2022-08-20T00:11:00;93884.94;;;17.16;96.97
40384;BME280;26097;42.366;23.818;2022-08-20T00:14:04;93879.34;;;17.11;97.05
40384;BME280;26097;42.366;23.818;2022-08-20T00:17:04;93879.00;;;17.06;98.09
40384;BME280;26097;42.366;23.818;2022-08-20T00:20:08;93877.66;;;17.02;98.51
40384;BME280;26097;42.366;23.818;2022-08-20T00:23:09;93868.47;;;17.06;98.01
40384;BME280;26097;42.366;23.818;2022-08-20T00:26:12;93872.25;;;17.11;97.96
40384;BME280;26097;42.366;23.818;2022-08-20T00:29:12;93882.59;;;17.05;98.32
40384;BME280;26097;42.366;23.818;2022-08-20T00:32:13;93874.69;;;16.96;98.93
40384;BME280;26097;42.366;23.818;2022-08-20T00:35:15;93872.53;;;16.92;99.51
40384;BME280;26097;42.366;23.818;2022-08-20T00:38:16;93867.91;;;16.94;98.93
40384;BME280;26097;42.366;23.818;2022-08-20T00:41:21;93870.41;;;16.95;98.62
40384;BME280;26097;42.366;23.818;2022-08-20T00:44:22;93873.34;;;16.92;98.83
40384;BME280;26097;42.366;23.818;2022-08-20T00:47:23;93877.78;;;16.92;99.08
40384;BME280;26097;42.366;23.818;2022-08-20T00:50:30;93877.44;;;16.87;100.00
40384;BME280;26097;42.366;23.818;2022-08-20T00:53:34;93874.63;;;16.80;100.00
40384;BME280;26097;42.366;23.818;2022-08-20T00:56:35;93877.41;;;16.70;100.00
40384;BME280;26097;42.366;23.818;2022-08-20T00:59:37;93876.72;;;16.68;100.00
40384;BME280;26097;42.366;23.818;2022-08-20T01:02:40;93880.34;;;16.67;100.00
40384;BME280;26097;42.366;23.818;2022-08-20T01:05:44;93872.59;;;16.65;100.00
40384;BME280;26097;42.366;23.818;2022-08-20T01:08:44;93873.91;;;16.69;100.00
40384;BME280;26097;42.366;23.818;2022-08-20T01:11:45;93884.09;;;16.64;100.00
40384;BME280;26097;42.366;23.818;2022-08-20T01:14:46;93875.56;;;16.62;100.00
40384;BME280;26097;42.366;23.818;2022-08-20T01:17:49;93867.78;;;16.52;100.00
40384;BME280;26097;42.366;23.818;2022-08-20T01:20:55;93864.69;;;16.57;100.00
40384;BME280;26097;42.366;23.818;2022-08-20T01:27:16;93862.34;;;16.46;100.00
40384;BME280;26097;42.366;23.818;2022-08-20T01:30:17;93862.34;;;16.46;100.00
40384;BME280;26097;42.366;23.818;2022-08-20T01:33:18;93865.94;;;16.45;100.00
40384;BME280;26097;42.366;23.818;2022-08-20T01:36:25;93861.19;;;16.48;100.00
40384;BME280;26097;42.366;23.818;2022-08-20T01:39:32;93859.75;;;16.54;100.00
40384;BME280;26097;42.366;23.818;2022-08-20T01:42:38;93858.09;;;16.53;100.00
40384;BME280;26097;42.366;23.818;2022-08-20T01:45:40;93859.56;;;16.47;100.00
40384;BME280;26097;42.366;23.818;2022-08-20T01:48:43;93858.53;;;16.40;100.00
40384;BME280;26097;42.366;23.818;2022-08-20T01:51:44;93847.84;;;16.33;100.00
40384;BME280;26097;42.366;23.818;2022-08-20T01:54:44;93842.25;;;16.36;100.00
40384;BME280;26097;42.366;23.818;2022-08-20T01:57:45;93843.91;;;16.37;100.00
40384;BME280;26097;42.366;23.818;2022-08-20T02:00:47;93847.03;;;16.41;100.00
40384;BME280;26097;42.366;23.818;2022-08-20T02:03:48;93845.03;;;16.35;100.00
40384;BME280;26097;42.366;23.818;2022-08-20T02:06:52;93838.28;;;16.32;100.00
40384;BME280;26097;42.366;23.818;2022-08-20T02:09:54;93832.31;;;16.22;100.00
40384;BME280;26097;42.366;23.818;2022-08-20T02:12:54;93838.22;;;16.16;100.00
40384;BME280;26097;42.366;23.818;2022-08-20T02:15:54;93831.13;;;16.16;100.00
40384;BME280;26097;42.366;23.818;2022-08-20T02:18:58;93833.63;;;16.18;100.00
40384;BME280;26097;42.366;23.818;2022-08-20T02:22:10;93825.94;;;16.24;100.00
40384;BME280;26097;42.366;23.818;2022-08-20T02:25:14;93827.22;;;16.20;100.00
40384;BME280;26097;42.366;23.818;2022-08-20T02:28:16;93826.06;;;16.15;100.00
40384;BME280;26097;42.366;23.818;2022-08-20T02:31:20;93819.75;;;16.07;100.00
40384;BME280;26097;42.366;23.818;2022-08-20T02:34:21;93823.53;;;16.05;100.00
40384;BME280;26097;42.366;23.818;2022-08-20T02:37:21;93817.75;;;16.01;100.00
40384;BME280;26097;42.366;23.818;2022-08-20T02:40:25;93813.34;;;16.02;100.00
40384;BME280;26097;42.366;23.818;2022-08-20T02:43:26;93811.19;;;16.05;100.00
40384;BME280;26097;42.366;23.818;2022-08-20T02:46:27;93814.28;;;16.01;100.00
40384;BME280;26097;42.366;23.818;2022-08-20T02:49:27;93814.13;;;15.94;100.00
40384;BME280;26097;42.366;23.818;2022-08-20T02:52:28;93804.59;;;15.93;100.00
40384;BME280;26097;42.366;23.818;2022-08-20T02:55:28;93810.81;;;15.92;100.00
40384;BME280;26097;42.366;23.818;2022-08-20T02:58:29;93807.38;;;15.99;100.00
40384;BME280;26097;42.366;23.818;2022-08-20T03:01:29;93807.38;;;15.99;100.00
40384;BME280;26097;42.366;23.818;2022-08-20T03:04:30;93806.59;;;15.99;100.00
40384;BME280;26097;42.366;23.818;2022-08-20T03:07:31;93809.66;;;15.94;100.00
40384;BME280;26097;42.366;23.818;2022-08-20T03:10:34;93807.03;;;15.94;100.00
40384;BME280;26097;42.366;23.818;2022-08-20T03:13:35;93809.84;;;15.93;100.00
40384;BME280;26097;42.366;23.818;2022-08-20T03:16:36;93818.22;;;15.96;100.00
40384;BME280;26097;42.366;23.818;2022-08-20T03:19:37;93820.13;;;15.86;100.00
40384;BME280;26097;42.366;23.818;2022-08-20T03:22:37;93830.75;;;15.76;100.00
40384;BME280;26097;42.366;23.818;2022-08-20T03:25:38;93832.97;;;15.71;100.00
40384;BME280;26097;42.366;23.818;2022-08-20T03:28:40;93836.00;;;15.76;100.00
40384;BME280;26097;42.366;23.818;2022-08-20T03:31:40;93827.47;;;15.82;100.00
40384;BME280;26097;42.366;23.818;2022-08-20T03:34:41;93833.41;;;15.84;100.00
40384;BME280;26097;42.366;23.818;2022-08-20T03:37:42;93830.25;;;15.81;100.00
40384;BME280;26097;42.366;23.818;2022-08-20T03:40:42;93830.78;;;15.84;100.00
40384;BME280;26097;42.366;23.818;2022-08-20T03:43:43;93830.94;;;15.83;100.00
40384;BME280;26097;42.366;23.818;2022-08-20T03:46:44;93829.44;;;15.80;100.00
40384;BME280;26097;42.366;23.818;2022-08-20T03:49:44;93833.41;;;15.84;100.00
40384;BME280;26097;42.366;23.818;2022-08-20T03:52:45;93831.16;;;15.90;100.00
40384;BME280;26097;42.366;23.818;2022-08-20T03:55:47;93831.16;;;15.90;100.00
40384;BME280;26097;42.366;23.818;2022-08-20T03:58:48;93826.75;;;15.90;100.00
40384;BME280;26097;42.366;23.818;2022-08-20T04:01:48;93839.19;;;15.88;100.00
40384;BME280;26097;42.366;23.818;2022-08-20T04:04:49;93838.28;;;15.97;100.00
40384;BME280;26097;42.366;23.818;2022-08-20T04:07:50;93838.78;;;16.01;100.00
40384;BME280;26097;42.366;23.818;2022-08-20T04:10:51;93843.06;;;16.02;100.00
40384;BME280;26097;42.366;23.818;2022-08-20T04:13:51;93827.97;;;16.04;100.00
40384;BME280;26097;42.366;23.818;2022-08-20T04:16:52;93837.91;;;16.19;100.00
40384;BME280;26097;42.366;23.818;2022-08-20T04:19:52;93834.63;;;16.25;100.00
40384;BME280;26097;42.366;23.818;2022-08-20T04:22:54;93835.34;;;16.35;100.00
40384;BME280;26097;42.366;23.818;2022-08-20T04:25:56;93839.97;;;16.41;100.00
40384;BME280;26097;42.366;23.818;2022-08-20T04:28:57;93837.66;;;16.47;100.00
40384;BME280;26097;42.366;23.818;2022-08-20T04:31:57;93839.38;;;16.64;100.00
40384;BME280;26097;42.366;23.818;2022-08-20T04:34:59;93843.38;;;16.77;100.00
40384;BME280;26097;42.366;23.818;2022-08-20T04:38:05;93846.84;;;16.85;100.00
40384;BME280;26097;42.366;23.818;2022-08-20T04:41:06;93842.75;;;16.91;100.00
40384;BME280;26097;42.366;23.818;2022-08-20T04:44:07;93827.16;;;17.06;100.00
40384;BME280;26097;42.366;23.818;2022-08-20T04:47:08;93828.84;;;17.24;100.00
40384;BME280;26097;42.366;23.818;2022-08-20T04:50:09;93829.31;;;17.44;100.00
40384;BME280;26097;42.366;23.818;2022-08-20T04:53:12;93830.13;;;17.53;100.00
40384;BME280;26097;42.366;23.818;2022-08-20T04:56:13;93827.66;;;17.60;100.00
40384;BME280;26097;42.366;23.818;2022-08-20T04:59:14;93830.59;;;17.81;100.00
40384;BME280;26097;42.366;23.818;2022-08-20T05:02:14;93821.84;;;17.89;100.00
40384;BME280;26097;42.366;23.818;2022-08-20T05:05:17;93826.63;;;18.02;100.00
40384;BME280;26097;42.366;23.818;2022-08-20T05:08:20;93819.66;;;18.18;100.00
40384;BME280;26097;42.366;23.818;2022-08-20T05:11:22;93830.50;;;18.31;100.00
40384;BME280;26097;42.366;23.818;2022-08-20T05:14:23;93825.19;;;18.48;100.00
40384;BME280;26097;42.366;23.818;2022-08-20T05:17:23;93818.16;;;18.63;100.00
40384;BME280;26097;42.366;23.818;2022-08-20T05:20:23;93814.44;;;18.81;100.00
40384;BME280;26097;42.366;23.818;2022-08-20T05:23:24;93818.66;;;18.98;100.00
40384;BME280;26097;42.366;23.818;2022-08-20T05:26:24;93817.06;;;19.12;100.00
40384;BME280;26097;42.366;23.818;2022-08-20T05:29:26;93820.59;;;19.28;100.00
40384;BME280;26097;42.366;23.818;2022-08-20T05:32:27;93806.25;;;19.46;100.00
40384;BME280;26097;42.366;23.818;2022-08-20T05:35:28;93810.41;;;19.63;100.00
40384;BME280;26097;42.366;23.818;2022-08-20T05:38:29;93814.53;;;19.81;100.00
40384;BME280;26097;42.366;23.818;2022-08-20T05:41:30;93811.94;;;19.96;100.00
40384;BME280;26097;42.366;23.818;2022-08-20T05:44:30;93798.25;;;20.07;100.00
40384;BME280;26097;42.366;23.818;2022-08-20T05:47:31;93803.72;;;20.21;100.00
40384;BME280;26097;42.366;23.818;2022-08-20T05:50:31;93805.16;;;20.38;100.00
40384;BME280;26097;42.366;23.818;2022-08-20T05:53:32;93794.38;;;20.55;100.00
40384;BME280;26097;42.366;23.818;2022-08-20T05:56:33;93793.00;;;20.74;98.82
40384;BME280;26097;42.366;23.818;2022-08-20T05:59:34;93800.53;;;20.92;98.15
40384;BME280;26097;42.366;23.818;2022-08-20T06:02:35;93791.72;;;21.07;97.72
40384;BME280;26097;42.366;23.818;2022-08-20T06:05:55;93798.03;;;21.28;96.49
40384;BME280;26097;42.366;23.818;2022-08-20T06:08:56;93796.13;;;21.43;95.96
40384;BME280;26097;42.366;23.818;2022-08-20T06:11:56;93786.41;;;21.50;95.97
40384;BME280;26097;42.366;23.818;2022-08-20T06:14:58;93798.78;;;21.65;95.93
40384;BME280;26097;42.366;23.818;2022-08-20T06:17:59;93801.16;;;21.81;94.03
40384;BME280;26097;42.366;23.818;2022-08-20T06:21:00;93803.66;;;21.90;92.96
40384;BME280;26097;42.366;23.818;2022-08-20T06:24:00;93807.66;;;22.07;91.23
40384;BME280;26097;42.366;23.818;2022-08-20T06:27:02;93811.78;;;22.17;89.76
40384;BME280;26097;42.366;23.818;2022-08-20T06:30:05;93802.69;;;22.33;88.17
40384;BME280;26097;42.366;23.818;2022-08-20T06:33:06;93799.69;;;22.43;88.06
40384;BME280;26097;42.366;23.818;2022-08-20T06:36:06;93806.50;;;22.52;88.31
40384;BME280;26097;42.366;23.818;2022-08-20T06:39:07;93805.94;;;22.63;87.92
40384;BME280;26097;42.366;23.818;2022-08-20T06:42:08;93805.75;;;22.72;83.95
40384;BME280;26097;42.366;23.818;2022-08-20T06:45:09;93811.28;;;22.77;82.68
40384;BME280;26097;42.366;23.818;2022-08-20T06:48:12;93808.47;;;22.85;81.69
40384;BME280;26097;42.366;23.818;2022-08-20T06:51:13;93810.53;;;22.96;81.42
40384;BME280;26097;42.366;23.818;2022-08-20T06:54:13;93801.97;;;23.08;81.50
40384;BME280;26097;42.366;23.818;2022-08-20T06:57:14;93814.69;;;23.19;80.13
40384;BME280;26097;42.366;23.818;2022-08-20T07:00:18;93808.81;;;23.37;80.96
40384;BME280;26097;42.366;23.818;2022-08-20T07:03:18;93809.00;;;23.36;80.43
40384;BME280;26097;42.366;23.818;2022-08-20T07:06:19;93806.56;;;23.54;80.19
40384;BME280;26097;42.366;23.818;2022-08-20T07:09:20;93801.06;;;23.56;78.82
40384;BME280;26097;42.366;23.818;2022-08-20T07:12:21;93801.06;;;23.63;78.13
40384;BME280;26097;42.366;23.818;2022-08-20T07:15:23;93798.78;;;23.73;78.80
40384;BME280;26097;42.366;23.818;2022-08-20T07:18:24;93793.06;;;23.83;76.64
40384;BME280;26097;42.366;23.818;2022-08-20T07:21:25;93786.50;;;23.99;76.76
40384;BME280;26097;42.366;23.818;2022-08-20T07:24:25;93788.78;;;24.02;75.74
40384;BME280;26097;42.366;23.818;2022-08-20T07:27:26;93783.66;;;24.07;75.79
40384;BME280;26097;42.366;23.818;2022-08-20T07:30:27;93777.06;;;24.17;75.96
40384;BME280;26097;42.366;23.818;2022-08-20T07:33:46;93781.94;;;24.27;75.44
40384;BME280;26097;42.366;23.818;2022-08-20T07:36:46;93776.81;;;24.38;74.95
40384;BME280;26097;42.366;23.818;2022-08-20T07:39:48;93779.03;;;24.48;73.93
40384;BME280;26097;42.366;23.818;2022-08-20T07:42:49;93779.81;;;24.56;74.17
40384;BME280;26097;42.366;23.818;2022-08-20T07:45:50;93779.78;;;24.69;73.92
40384;BME280;26097;42.366;23.818;2022-08-20T07:48:51;93776.44;;;24.87;75.07
40384;BME280;26097;42.366;23.818;2022-08-20T07:51:51;93780.22;;;25.05;74.27
40384;BME280;26097;42.366;23.818;2022-08-20T07:54:51;93777.06;;;25.21;73.09
40384;BME280;26097;42.366;23.818;2022-08-20T07:57:52;93779.47;;;25.30;74.00
40384;BME280;26097;42.366;23.818;2022-08-20T08:00:52;93776.31;;;25.39;73.71
40384;BME280;26097;42.366;23.818;2022-08-20T08:03:53;93768.25;;;25.46;72.49
40384;BME280;26097;42.366;23.818;2022-08-20T08:06:53;93771.47;;;25.62;71.56
40384;BME280;26097;42.366;23.818;2022-08-20T08:09:55;93765.69;;;25.65;70.99
40384;BME280;26097;42.366;23.818;2022-08-20T08:12:59;93766.78;;;25.83;71.41
40384;BME280;26097;42.366;23.818;2022-08-20T08:16:04;93758.75;;;25.83;69.34
40384;BME280;26097;42.366;23.818;2022-08-20T08:19:05;93757.91;;;26.07;69.59
40384;BME280;26097;42.366;23.818;2022-08-20T08:22:11;93754.13;;;26.15;67.26
40384;BME280;26097;42.366;23.818;2022-08-20T08:25:15;93745.94;;;26.17;65.55
40384;BME280;26097;42.366;23.818;2022-08-20T08:28:17;93755.28;;;26.26;66.04
40384;BME280;26097;42.366;23.818;2022-08-20T08:31:18;93748.75;;;26.41;65.75
40384;BME280;26097;42.366;23.818;2022-08-20T08:34:18;93737.41;;;26.45;64.78
40384;BME280;26097;42.366;23.818;2022-08-20T08:37:19;93737.47;;;26.57;65.68
40384;BME280;26097;42.366;23.818;2022-08-20T08:40:20;93735.59;;;26.58;64.45
40384;BME280;26097;42.366;23.818;2022-08-20T08:43:23;93738.47;;;26.75;62.27
40384;BME280;26097;42.366;23.818;2022-08-20T08:46:26;93732.06;;;26.94;62.41
40384;BME280;26097;42.366;23.818;2022-08-20T08:49:30;93726.75;;;27.06;62.17
40384;BME280;26097;42.366;23.818;2022-08-20T08:52:34;93718.88;;;27.23;63.31
40384;BME280;26097;42.366;23.818;2022-08-20T08:55:36;93715.06;;;27.31;63.12
40384;BME280;26097;42.366;23.818;2022-08-20T08:58:36;93712.28;;;27.38;62.14
40384;BME280;26097;42.366;23.818;2022-08-20T09:01:42;93708.03;;;27.61;61.58
40384;BME280;26097;42.366;23.818;2022-08-20T09:04:45;93710.22;;;27.64;60.71
40384;BME280;26097;42.366;23.818;2022-08-20T09:07:48;93701.03;;;27.60;60.58
40384;BME280;26097;42.366;23.818;2022-08-20T09:10:50;93697.03;;;27.50;59.45
40384;BME280;26097;42.366;23.818;2022-08-20T09:13:51;93696.97;;;27.69;58.16
40384;BME280;26097;42.366;23.818;2022-08-20T09:16:54;93688.81;;;27.88;58.04
40384;BME280;26097;42.366;23.818;2022-08-20T09:19:55;93690.44;;;28.01;58.10
40384;BME280;26097;42.366;23.818;2022-08-20T09:22:55;93688.09;;;28.04;56.81
40384;BME280;26097;42.366;23.818;2022-08-20T09:25:56;93684.72;;;28.09;57.90
40384;BME280;26097;42.366;23.818;2022-08-20T09:28:57;93682.13;;;28.26;58.19
40384;BME280;26097;42.366;23.818;2022-08-20T09:32:18;93686.19;;;28.41;55.44
40384;BME280;26097;42.366;23.818;2022-08-20T09:35:19;93673.00;;;28.51;57.53
40384;BME280;26097;42.366;23.818;2022-08-20T09:38:20;93686.00;;;28.59;57.31
40384;BME280;26097;42.366;23.818;2022-08-20T09:41:20;93680.56;;;28.83;54.94
40384;BME280;26097;42.366;23.818;2022-08-20T09:44:21;93676.34;;;28.87;52.56
40384;BME280;26097;42.366;23.818;2022-08-20T09:47:21;93674.72;;;28.86;53.96
40384;BME280;26097;42.366;23.818;2022-08-20T09:50:22;93673.66;;;28.87;53.83
40384;BME280;26097;42.366;23.818;2022-08-20T09:53:22;93670.09;;;28.82;52.53
40384;BME280;26097;42.366;23.818;2022-08-20T09:56:23;93666.38;;;29.00;53.30
40384;BME280;26097;42.366;23.818;2022-08-20T09:59:24;93663.38;;;29.30;53.35
40384;BME280;26097;42.366;23.818;2022-08-20T10:02:25;93674.53;;;29.39;52.45
40384;BME280;26097;42.366;23.818;2022-08-20T10:05:26;93667.25;;;29.52;51.83
40384;BME280;26097;42.366;23.818;2022-08-20T10:08:27;93671.47;;;29.47;50.82
40384;BME280;26097;42.366;23.818;2022-08-20T10:11:28;93662.16;;;29.38;51.89
40384;BME280;26097;42.366;23.818;2022-08-20T10:14:28;93662.09;;;29.67;50.55
40384;BME280;26097;42.366;23.818;2022-08-20T10:17:29;93658.56;;;29.84;50.82
40384;BME280;26097;42.366;23.818;2022-08-20T10:20:29;93660.50;;;29.88;51.47
40384;BME280;26097;42.366;23.818;2022-08-20T10:23:30;93652.13;;;30.02;49.48
40384;BME280;26097;42.366;23.818;2022-08-20T10:26:31;93665.88;;;29.88;50.06
40384;BME280;26097;42.366;23.818;2022-08-20T10:29:31;93655.25;;;30.16;49.19
40384;BME280;26097;42.366;23.818;2022-08-20T10:32:32;93653.69;;;30.20;48.19
40384;BME280;26097;42.366;23.818;2022-08-20T10:35:33;93653.28;;;30.56;48.51
40384;BME280;26097;42.366;23.818;2022-08-20T10:38:34;93651.97;;;30.58;48.03
40384;BME280;26097;42.366;23.818;2022-08-20T10:41:34;93646.84;;;30.79;48.16
40384;BME280;26097;42.366;23.818;2022-08-20T10:44:35;93652.19;;;30.74;46.94
40384;BME280;26097;42.366;23.818;2022-08-20T10:47:36;93650.88;;;30.54;46.76
40384;BME280;26097;42.366;23.818;2022-08-20T10:50:36;93653.41;;;30.88;48.11
40384;BME280;26097;42.366;23.818;2022-08-20T10:53:36;93648.84;;;31.22;46.63
40384;BME280;26097;42.366;23.818;2022-08-20T10:56:38;93650.00;;;30.98;47.16
40384;BME280;26097;42.366;23.818;2022-08-20T10:59:40;93657.25;;;30.48;47.79
40384;BME280;26097;42.366;23.818;2022-08-20T11:02:41;93650.09;;;29.92;50.00
40384;BME280;26097;42.366;23.818;2022-08-20T11:05:41;93650.16;;;29.41;51.19
40384;BME280;26097;42.366;23.818;2022-08-20T11:08:42;93644.91;;;29.17;51.18
40384;BME280;26097;42.366;23.818;2022-08-20T11:11:42;93638.97;;;28.98;52.18
40384;BME280;26097;42.366;23.818;2022-08-20T11:14:43;93641.84;;;28.79;52.57
40384;BME280;26097;42.366;23.818;2022-08-20T11:17:43;93647.25;;;28.50;52.80
40384;BME280;26097;42.366;23.818;2022-08-20T11:20:44;93645.88;;;28.35;53.29
40384;BME280;26097;42.366;23.818;2022-08-20T11:23:44;93648.00;;;28.09;54.19
40384;BME280;26097;42.366;23.818;2022-08-20T11:26:46;93643.25;;;28.00;54.96
40384;BME280;26097;42.366;23.818;2022-08-20T11:29:47;93653.66;;;27.96;55.41
40384;BME280;26097;42.366;23.818;2022-08-20T11:32:48;93641.06;;;27.85;55.93
40384;BME280;26097;42.366;23.818;2022-08-20T11:35:48;93628.97;;;27.70;56.93
40384;BME280;26097;42.366;23.818;2022-08-20T11:38:49;93621.53;;;27.48;58.81
40384;BME280;26097;42.366;23.818;2022-08-20T11:41:49;93627.59;;;27.32;58.48
40384;BME280;26097;42.366;23.818;2022-08-20T11:44:50;93627.94;;;27.35;57.84
40384;BME280;26097;42.366;23.818;2022-08-20T11:47:50;93627.91;;;27.47;57.07
40384;BME280;26097;42.366;23.818;2022-08-20T11:50:50;93629.44;;;27.43;58.66
40384;BME280;26097;42.366;23.818;2022-08-20T11:53:51;93619.56;;;27.32;59.03
40384;BME280;26097;42.366;23.818;2022-08-20T11:56:51;93617.22;;;27.35;60.04
40384;BME280;26097;42.366;23.818;2022-08-20T11:59:54;93627.59;;;27.32;60.43
40384;BME280;26097;42.366;23.818;2022-08-20T12:02:55;93633.75;;;27.32;58.11
40384;BME280;26097;42.366;23.818;2022-08-20T12:05:55;93632.94;;;27.32;57.66
40384;BME280;26097;42.366;23.818;2022-08-20T12:08:57;93640.03;;;27.26;57.22
40384;BME280;26097;42.366;23.818;2022-08-20T12:11:57;93635.59;;;27.20;57.55
40384;BME280;26097;42.366;23.818;2022-08-20T12:14:57;93630.59;;;27.12;58.06
40384;BME280;26097;42.366;23.818;2022-08-20T12:17:58;93628.84;;;27.05;57.11
40384;BME280;26097;42.366;23.818;2022-08-20T12:20:59;93629.53;;;27.01;57.35
40384;BME280;26097;42.366;23.818;2022-08-20T12:24:00;93618.88;;;26.82;58.40
40384;BME280;26097;42.366;23.818;2022-08-20T12:27:11;93624.09;;;26.77;58.91
40384;BME280;26097;42.366;23.818;2022-08-20T12:30:15;93623.38;;;26.70;59.45
40384;BME280;26097;42.366;23.818;2022-08-20T12:33:16;93618.72;;;26.65;59.44
40384;BME280;26097;42.366;23.818;2022-08-20T12:36:17;93612.19;;;26.61;60.17
40384;BME280;26097;42.366;23.818;2022-08-20T12:39:17;93611.59;;;26.59;60.52
40384;BME280;26097;42.366;23.818;2022-08-20T12:42:19;93612.03;;;26.44;62.02
40384;BME280;26097;42.366;23.818;2022-08-20T12:45:20;93606.78;;;26.37;62.62
40384;BME280;26097;42.366;23.818;2022-08-20T12:48:20;93612.19;;;26.30;63.56
40384;BME280;26097;42.366;23.818;2022-08-20T12:51:21;93628.69;;;26.27;65.15
40384;BME280;26097;42.366;23.818;2022-08-20T12:54:21;93632.84;;;26.23;66.05
40384;BME280;26097;42.366;23.818;2022-08-20T12:57:31;93623.25;;;26.15;67.05
40384;BME280;26097;42.366;23.818;2022-08-20T13:00:35;93620.22;;;26.12;67.83
40384;BME280;26097;42.366;23.818;2022-08-20T13:03:36;93610.50;;;25.99;67.86
40384;BME280;26097;42.366;23.818;2022-08-20T13:06:36;93604.53;;;25.85;68.45
40384;BME280;26097;42.366;23.818;2022-08-20T13:09:37;93602.59;;;25.73;67.52
40384;BME280;26097;42.366;23.818;2022-08-20T13:12:37;93588.38;;;25.61;66.86
40384;BME280;26097;42.366;23.818;2022-08-20T13:15:38;93568.78;;;25.48;67.22
40384;BME280;26097;42.366;23.818;2022-08-20T13:18:38;93552.63;;;25.43;66.96
40384;BME280;26097;42.366;23.818;2022-08-20T13:21:39;93538.97;;;25.33;67.61
40384;BME280;26097;42.366;23.818;2022-08-20T13:24:40;93527.19;;;25.22;68.93
40384;BME280;26097;42.366;23.818;2022-08-20T13:27:40;93520.00;;;25.04;71.28
40384;BME280;26097;42.366;23.818;2022-08-20T13:30:41;93514.91;;;24.95;72.13
40384;BME280;26097;42.366;23.818;2022-08-20T13:33:43;93497.22;;;24.83;73.06
40384;BME280;26097;42.366;23.818;2022-08-20T13:36:43;93511.56;;;24.81;73.21
40384;BME280;26097;42.366;23.818;2022-08-20T13:39:44;93525.13;;;24.80;73.28
40384;BME280;26097;42.366;23.818;2022-08-20T13:42:45;93534.16;;;24.79;73.71
40384;BME280;26097;42.366;23.818;2022-08-20T13:45:45;93552.22;;;24.77;74.27
40384;BME280;26097;42.366;23.818;2022-08-20T13:48:46;93556.75;;;24.70;74.15
40384;BME280;26097;42.366;23.818;2022-08-20T13:51:46;93563.75;;;24.64;74.02
40384;BME280;26097;42.366;23.818;2022-08-20T13:54:46;93572.97;;;24.36;74.13
40384;BME280;26097;42.366;23.818;2022-08-20T13:57:47;93584.22;;;23.99;76.15
40384;BME280;26097;42.366;23.818;2022-08-20T14:00:48;93601.06;;;23.79;77.44
40384;BME280;26097;42.366;23.818;2022-08-20T14:03:49;93622.56;;;23.71;77.77
40384;BME280;26097;42.366;23.818;2022-08-20T14:06:50;93639.56;;;23.70;77.02
40384;BME280;26097;42.366;23.818;2022-08-20T14:10:04;93663.09;;;23.73;77.83
40384;BME280;26097;42.366;23.818;2022-08-20T14:13:05;93644.09;;;23.70;73.01
40384;BME280;26097;42.366;23.818;2022-08-20T14:16:06;93651.69;;;23.52;72.32
40384;BME280;26097;42.366;23.818;2022-08-20T14:19:06;93636.13;;;23.49;71.05
40384;BME280;26097;42.366;23.818;2022-08-20T14:22:06;93618.38;;;23.43;69.31
40384;BME280;26097;42.366;23.818;2022-08-20T14:25:09;93616.72;;;23.49;68.26
40384;BME280;26097;42.366;23.818;2022-08-20T14:28:21;93617.69;;;23.61;64.73
40384;BME280;26097;42.366;23.818;2022-08-20T14:31:22;93629.78;;;23.64;64.63
40384;BME280;26097;42.366;23.818;2022-08-20T14:34:23;93637.16;;;23.48;65.69
40384;BME280;26097;42.366;23.818;2022-08-20T14:37:27;93635.94;;;23.17;65.38
40384;BME280;26097;42.366;23.818;2022-08-20T14:40:27;93635.75;;;23.05;64.35
40384;BME280;26097;42.366;23.818;2022-08-20T14:43:28;93619.59;;;22.93;63.25
40384;BME280;26097;42.366;23.818;2022-08-20T14:46:28;93621.63;;;22.78;62.53
40384;BME280;26097;42.366;23.818;2022-08-20T14:49:28;93610.63;;;22.74;63.25
40384;BME280;26097;42.366;23.818;2022-08-20T14:52:29;93625.72;;;22.74;62.62
40384;BME280;26097;42.366;23.818;2022-08-20T14:55:33;93626.53;;;22.67;64.26
40384;BME280;26097;42.366;23.818;2022-08-20T14:58:36;93632.03;;;22.52;65.21
40384;BME280;26097;42.366;23.818;2022-08-20T15:01:36;93624.03;;;22.46;66.12
40384;BME280;26097;42.366;23.818;2022-08-20T15:04:37;93618.06;;;22.30;68.16
40384;BME280;26097;42.366;23.818;2022-08-20T15:07:41;93612.41;;;21.85;74.49
40384;BME280;26097;42.366;23.818;2022-08-20T15:10:42;93600.97;;;21.42;76.07
40384;BME280;26097;42.366;23.818;2022-08-20T15:13:42;93602.13;;;21.33;76.96
40384;BME280;26097;42.366;23.818;2022-08-20T15:16:43;93613.06;;;20.94;80.18
40384;BME280;26097;42.366;23.818;2022-08-20T15:19:44;93643.94;;;20.80;85.42
40384;BME280;26097;42.366;23.818;2022-08-20T15:22:44;93683.16;;;20.33;87.41
40384;BME280;26097;42.366;23.818;2022-08-20T15:25:45;93676.72;;;20.21;88.65
40384;BME280;26097;42.366;23.818;2022-08-20T15:28:45;93678.22;;;20.08;92.76
40384;BME280;26097;42.366;23.818;2022-08-20T15:31:46;93669.81;;;19.90;97.78
40384;BME280;26097;42.366;23.818;2022-08-20T15:34:47;93666.16;;;19.61;100.00
40384;BME280;26097;42.366;23.818;2022-08-20T15:37:49;93651.59;;;19.35;100.00
40384;BME280;26097;42.366;23.818;2022-08-20T15:40:52;93638.47;;;19.26;100.00
40384;BME280;26097;42.366;23.818;2022-08-20T15:43:53;93612.31;;;19.17;100.00
40384;BME280;26097;42.366;23.818;2022-08-20T15:46:53;93584.16;;;19.24;100.00
40384;BME280;26097;42.366;23.818;2022-08-20T15:50:23;93579.16;;;19.29;100.00